Flight Track Log - Related Links

Times and Time Zones

All times are in EDT time to prevent confusion due to time zone crossing. See the AWE1890 flight status page for this flight to view local times or setup timezone preferences in your user account.

Time Position Orientation Groundspeed Altitude Reporting Facility
EDT Latitude Longitude Course Direction KTS MPH feet Rate Location/Type
Sat 10:44:06 AM 29.9958 -90.2844 49° Northeast 150 173 600  Level Houston Center
Sat 10:44:55 AM 30.0178 -90.3194 306° West 180 207 2,100 1,765 Climbing Houston Center
Sat 10:45:48 AM 30.0689 -90.3467 335° Northwest 231 266 3,600 2,609 Climbing Houston Center
Sat 10:46:50 AM 30.1325 -90.3031 31° Northeast 269 310 7,100 3,242 Climbing Houston Center
Sat 10:47:52 AM 30.1775 -90.2236 57° Northeast 292 336 10,300 2,710 Climbing Houston Center
Sat 10:48:00 AM 30.3150 -89.7859 52° Northeast  Level FlightAware Approximate
Sat 10:48:54 AM 30.2194 -90.1300 63° Northeast 329 379 12,700  Level Houston Center
Sat 10:49:00 AM 30.3816 -89.6912 49° Northeast  Level FlightAware Approximate
Sat 10:49:56 AM 30.2567 -90.0292 67° East 338 389 15,100  Level Houston Center
Sat 10:50:58 AM 30.2961 -89.9228 67° East 358 412 17,400 2,323 Climbing Houston Center
Sat 10:52:00 AM 30.3456 -89.7917 66° East 374 430 19,900 2,129 Climbing Houston Center
Sat 10:53:02 AM 30.4017 -89.6975 55° Northeast 389 448 21,800 1,984 Climbing Houston Center
Sat 10:54:04 AM 30.4711 -89.5731 57° Northeast 385 443 24,000 1,790 Climbing Houston Center
Sat 10:55:06 AM 30.5317 -89.4656 57° Northeast 396 456 25,500 1,680 Climbing Houston Center
Sat 10:56:09 AM 30.5928 -89.3567 57° Northeast 399 459 27,500 1,645 Climbing Houston Center
Sat 10:57:10 AM 30.6525 -89.2486 57° Northeast 399 459 28,900 1,268 Climbing Houston Center
Sat 10:58:12 AM 30.7128 -89.1375 58° Northeast 403 464 30,100 1,065 Climbing Houston Center
Sat 10:59:14 AM 30.7753 -89.0239 57° Northeast 414 476 31,100 1,258 Climbing Houston Center
Sat 11:00:16 AM 30.8458 -88.8983 57° Northeast 422 486 32,700 919 Climbing Houston Center
Sat 11:01:18 AM 30.9089 -88.7839 57° Northeast 422 486 33,000 144 Climbing Houston Center
Sat 11:02:21 AM 30.9728 -88.6686 57° Northeast 422 486 33,000 -48 Level Houston Center
Sat 11:03:23 AM 31.0422 -88.5408 58° Northeast 423 487 32,900 -48 Descending Houston Center
Sat 11:04:25 AM 31.1050 -88.4258 57° Northeast 422 486 32,900  Level Houston Center
Sat 11:05:27 AM 31.1667 -88.3089 58° Northeast 427 491 32,900 48 Level Houston Center
Sat 11:06:29 AM 31.2428 -88.1747 56° Northeast 430 495 33,000 48 Climbing Houston Center
Sat 11:07:31 AM 31.3069 -88.0567 58° Northeast 430 495 33,000  Level Houston Center
Sat 11:08:33 AM 31.3697 -87.9397 58° Northeast 428 493 33,000  Level Houston Center
Sat 11:09:35 AM 31.4331 -87.8217 58° Northeast 428 493 33,000  Level Houston Center
Sat 11:10:38 AM 31.4967 -87.7039 58° Northeast 428 493 33,000  Level Houston Center
Sat 11:11:40 AM 31.5717 -87.5622 58° Northeast 428 493 33,000  Level Houston Center
Sat 11:12:42 AM 31.6333 -87.4450 58° Northeast 427 491 33,000  Level Houston Center
Sat 11:13:26 AM 31.6706 -87.3753 58° Northeast 422 486 33,000  Level Atlanta Center
Sat 11:14:28 AM 31.7381 -87.2467 58° Northeast 423 487 33,000  Level Atlanta Center
Sat 11:15:30 AM 31.7989 -87.1297 59° Northeast 421 484 33,000  Level Atlanta Center
Sat 11:16:32 AM 31.8608 -87.0128 58° Northeast 421 484 33,000  Level Atlanta Center
Sat 11:17:34 AM 31.9350 -86.8733 58° Northeast 422 486 33,000  Level Atlanta Center
Sat 11:18:36 AM 31.9967 -86.7539 59° Northeast 424 488 33,000  Level Atlanta Center
Sat 11:19:39 AM 32.0517 -86.6497 58° Northeast 422 486 33,000  Level Atlanta Center
Sat 11:20:41 AM 32.1258 -86.5069 58° Northeast 427 491 33,000  Level Atlanta Center
Sat 11:21:43 AM 32.1881 -86.3875 58° Northeast 427 491 33,000  Level Atlanta Center
Sat 11:22:45 AM 32.2658 -86.2622 54° Northeast 435 501 33,000  Level Atlanta Center
Sat 11:23:47 AM 32.3447 -86.1575 48° Northeast 431 496 33,000  Level Atlanta Center
Sat 11:24:49 AM 32.4297 -86.0497 47° Northeast 438 504 33,000  Level Atlanta Center
Sat 11:25:52 AM 32.5161 -85.9350 48° Northeast 430 495 33,000  Level Atlanta Center
Sat 11:26:54 AM 32.5964 -85.8286 48° Northeast 431 496 33,000  Level Atlanta Center
Sat 11:27:56 AM 32.6772 -85.7228 48° Northeast 430 495 33,000  Level Atlanta Center
Sat 11:28:58 AM 32.7564 -85.6164 48° Northeast 432 497 33,000  Level Atlanta Center
Sat 11:30:00 AM 32.8361 -85.5097 48° Northeast 432 497 33,000  Level Atlanta Center
Sat 11:31:02 AM 32.9142 -85.4047 48° Northeast 430 495 33,000  Level Atlanta Center
Sat 11:32:05 AM 33.0086 -85.2758 49° Northeast 429 494 33,000  Level Atlanta Center
Sat 11:33:07 AM 33.0825 -85.1783 48° Northeast 430 495 33,000  Level Atlanta Center
Sat 11:34:09 AM 33.1622 -85.0711 48° Northeast 431 496 33,000  Level Atlanta Center
Sat 11:35:11 AM 33.2575 -84.9417 49° Northeast 432 497 33,000  Level Atlanta Center
Sat 11:36:13 AM 33.3381 -84.8347 48° Northeast 431 496 33,000  Level Atlanta Center
Sat 11:37:15 AM 33.4161 -84.7250 50° Northeast 435 501 33,000  Level Atlanta Center
Sat 11:38:18 AM 33.4964 -84.6161 49° Northeast 438 504 33,000  Level Atlanta Center
Sat 11:39:20 AM 33.5747 -84.5072 49° Northeast 437 503 33,000  Level Atlanta Center
Sat 11:40:22 AM 33.6417 -84.3781 58° Northeast 445 512 33,000  Level Atlanta Center
Sat 11:41:24 AM 33.6925 -84.2133 70° East 438 504 33,000  Level Atlanta Center
Sat 11:42:26 AM 33.7283 -84.0797 72° East 439 505 33,000  Level Atlanta Center
Sat 11:43:28 AM 33.7675 -83.9403 71° East 441 507 33,000  Level Atlanta Center
Sat 11:44:31 AM 33.8153 -83.7719 71° East 444 511 33,000  Level Atlanta Center
Sat 11:45:33 AM 33.8533 -83.6306 72° East 456 525 33,000 -145 Level Atlanta Center
Sat 11:46:35 AM 33.8942 -83.4906 71° East 453 521 32,700 -629 Descending Atlanta Center
Sat 11:47:37 AM 33.9331 -83.3483 72° East 445 512 31,700 -968 Descending Atlanta Center
Sat 11:48:39 AM 33.9708 -83.2039 72° East 458 527 30,700 -968 Descending Atlanta Center
Sat 11:49:41 AM 34.0117 -83.0617 71° East 451 519 29,700 -1,056 Descending Atlanta Center
Sat 11:50:44 AM 34.0547 -82.8856 74° East 461 531 28,500 -1,152 Descending Atlanta Center
Sat 11:51:46 AM 34.0972 -82.7431 70° East 457 526 27,300 -1,645 Descending Atlanta Center
Sat 11:52:48 AM 34.1372 -82.5925 72° East 444 511 25,100 -1,597 Descending Atlanta Center
Sat 11:53:50 AM 34.1733 -82.4553 72° East 431 496 24,000 -581 Descending Atlanta Center
Sat 11:54:52 AM 34.2094 -82.3192 72° East 428 493 23,900 -480 Descending Atlanta Center
Sat 11:55:55 AM 34.2433 -82.1825 73° East 426 490 23,000 -960 Descending Atlanta Center
Sat 11:56:57 AM 34.3156 -82.0753 51° Northeast 419 482 21,900 -1,645 Descending Atlanta Center
Sat 11:57:59 AM 34.4089 -81.9542 47° Northeast 415 478 19,600 -2,129 Descending Atlanta Center
Sat 11:59:01 AM 34.4869 -81.8536 47° Northeast 413 475 17,500 -1,952 Descending Atlanta Center
Sat 12:00:05 PM 34.5569 -81.7650 46° Northeast 371 427 15,500 -1,762 Descending Atlanta Center
Sat 12:01:07 PM 34.6253 -81.6789 46° Northeast 360 414 13,800 -1,597 Descending Atlanta Center
Sat 12:02:09 PM 34.7036 -81.5847 45° Northeast 346 398 12,200 -1,291 Descending Atlanta Center
Sat 12:02:26 PM 34.7208 -81.5611 48° Northeast 331 381 12,100 -290 Descending Atlanta Center
Sat 12:03:11 PM 34.7664 -81.4997 48° Northeast 339 390 11,900 -109 Descending Atlanta Center
Sat 12:03:21 PM 34.7828 -81.4806 44° Northeast 346 398 12,000 97 Climbing Atlanta Center
Sat 12:04:13 PM 34.8353 -81.4125 47° Northeast 352 405 12,000 -626 Level Atlanta Center
Sat 12:05:16 PM 34.9033 -81.3239 47° Northeast 354 407 10,800 -960 Descending Atlanta Center
Sat 12:06:18 PM 34.9683 -81.2397 47° Northeast 354 407 10,000 -387 Descending Atlanta Center
Sat 12:07:20 PM 35.0417 -81.1464 46° Northeast 325 374 10,000  Level Atlanta Center
Sat 12:08:19 PM 35.0961 -81.0756 47° Northeast 305 351 10,000 -150 Level Atlanta Center
Sat 12:09:20 PM 35.1828 -81.0664 North 293 337 9,700 -828 Descending Atlanta Center
Sat 12:10:15 PM 35.2517 -81.0728 356° North 287 330 8,400 -1,343 Descending Atlanta Center
Sat 12:10:27 PM 35.2597 -81.0725 North 295 339 8,200 -1,644 Descending Atlanta Center
Sat 12:11:28 PM 35.3494 -81.0803 356° North 281 323 6,400 -1,597 Descending Atlanta Center
Sat 12:12:31 PM 35.4303 -81.0839 358° North 283 326 4,900 -1,104 Descending Atlanta Center
Sat 12:13:33 PM 35.4567 -81.0133 65° Northeast 258 297 4,100 -774 Descending Atlanta Center
Sat 12:14:35 PM 35.4097 -80.9825 152° Southeast 230 265 3,300 -532 Descending Atlanta Center
Sat 12:15:37 PM 35.3592 -80.9781 176° South 199 229 3,000 -462 Descending Atlanta Center
Sat 12:16:32 PM 35.3083 -80.9753 177° South 181 208 2,400 -709 Descending Atlanta Center
Sat 12:17:27 PM 35.2728 -80.9733 177° South 138 159 1,700 -686 Descending Atlanta Center
Sat 12:17:42 PM 35.2694 -80.9711 151° Southeast 162 186 1,600 -700 Descending Atlanta Center
Sat 12:18:27 PM 35.2356 -80.9683 176° South 127 146 1,000 -387 Descending Atlanta Center
Sat 12:18:44 PM 35.2258 -80.9681 179° South 148 170 1,200 706 Climbing Atlanta Center
Sat 12:20:00 PM 35.2137 -80.9491 158° South  Level Estimated
Sat 12:27:00 PM 35.2137 -80.9491 158° South  Level Estimated

Login

Don't have an account? Register now (free) for customized features, flight alerts, and more!